createdAt,value
2022-09-15T00:01:07.962Z,10.70
2022-09-15T00:03:42.298Z,11.68
2022-09-15T00:06:09.879Z,11.73
2022-09-15T00:08:37.397Z,10.52
2022-09-15T00:11:36.860Z,11.13
2022-09-15T00:14:05.508Z,10.50
2022-09-15T00:16:33.191Z,10.07
2022-09-15T00:19:01.004Z,10.85
2022-09-15T00:21:30.782Z,11.30
2022-09-15T00:23:58.972Z,10.32
2022-09-15T00:26:27.097Z,11.13
2022-09-15T00:28:55.763Z,10.80
2022-09-15T00:31:23.963Z,11.18
2022-09-15T00:33:52.170Z,11.10
2022-09-15T00:36:20.045Z,10.45
2022-09-15T00:38:47.604Z,10.13
2022-09-15T00:41:16.015Z,11.00
2022-09-15T00:44:09.806Z,10.65
2022-09-15T00:46:39.393Z,10.85
2022-09-15T00:49:13.155Z,9.80
2022-09-15T00:51:52.464Z,10.40
2022-09-15T00:54:26.986Z,9.68
2022-09-15T00:56:56.194Z,9.95
2022-09-15T00:59:26.196Z,10.32
2022-09-15T01:02:22.596Z,9.60
2022-09-15T01:04:55.995Z,10.05
2022-09-15T01:07:44.081Z,9.65
2022-09-15T01:10:14.754Z,10.70
2022-09-15T01:12:42.345Z,9.85
2022-09-15T01:15:09.758Z,9.25
2022-09-15T01:17:54.873Z,9.00
2022-09-15T01:20:30.354Z,8.57
2022-09-15T01:23:00.492Z,8.73
2022-09-15T01:25:47.961Z,8.48
2022-09-15T01:28:30.424Z,8.63
2022-09-15T01:33:42.460Z,7.80
2022-09-15T01:39:19.659Z,9.10
2022-09-15T01:41:53.079Z,9.30
2022-09-15T01:44:29.004Z,8.85
2022-09-15T01:46:58.079Z,9.23
2022-09-15T01:49:28.253Z,8.80
2022-09-15T01:51:55.478Z,8.35
2022-09-15T01:54:26.359Z,8.88
2022-09-15T01:56:53.940Z,8.40
2022-09-15T01:59:21.317Z,8.82
2022-09-15T02:01:50.764Z,8.73
2022-09-15T02:04:22.861Z,9.05
2022-09-15T02:06:54.209Z,9.13
2022-09-15T02:09:28.479Z,9.27
2022-09-15T02:11:58.453Z,9.95
2022-09-15T02:14:44.543Z,10.20
2022-09-15T02:17:13.880Z,10.23
2022-09-15T02:19:44.726Z,10.18
2022-09-15T02:22:21.399Z,10.85
2022-09-15T02:24:52.974Z,11.15
2022-09-15T02:27:23.210Z,11.77
2022-09-15T02:29:52.137Z,12.73
2022-09-15T02:32:21.131Z,12.55
2022-09-15T02:34:49.145Z,12.60
2022-09-15T02:37:17.542Z,13.63
2022-09-15T02:39:48.227Z,12.77
2022-09-15T02:42:28.382Z,13.25
2022-09-15T02:44:56.525Z,12.77
2022-09-15T02:47:23.989Z,13.80
2022-09-15T02:49:51.647Z,13.95
2022-09-15T02:52:19.066Z,15.05
2022-09-15T02:54:46.314Z,14.27
2022-09-15T02:57:13.638Z,15.02
2022-09-15T02:59:41.278Z,14.85
2022-09-15T03:02:08.535Z,15.20
2022-09-15T03:04:35.806Z,14.70
2022-09-15T03:07:03.351Z,15.48
2022-09-15T03:09:30.672Z,14.75
2022-09-15T03:11:57.963Z,13.45
2022-09-15T03:14:25.453Z,14.40
2022-09-15T03:16:52.703Z,14.10
2022-09-15T03:19:20.016Z,13.75
2022-09-15T03:21:47.447Z,14.45
2022-09-15T03:24:14.748Z,14.90
2022-09-15T03:26:42.075Z,13.93
2022-09-15T03:29:09.648Z,15.40
2022-09-15T03:31:36.988Z,14.82
2022-09-15T03:34:04.367Z,13.55
2022-09-15T03:36:34.074Z,12.70
2022-09-15T03:39:01.325Z,11.85
2022-09-15T03:41:30.701Z,11.68
2022-09-15T03:43:58.269Z,10.43
2022-09-15T03:46:25.548Z,11.18
2022-09-15T03:48:52.767Z,9.85
2022-09-15T03:51:20.199Z,9.20
2022-09-15T03:53:47.489Z,8.45
2022-09-15T03:56:21.741Z,7.43
2022-09-15T03:58:49.577Z,7.10
2022-09-15T04:01:16.867Z,6.60
2022-09-15T04:03:50.112Z,6.22
2022-09-15T04:06:22.577Z,6.55
2022-09-15T04:08:49.992Z,5.80
2022-09-15T04:11:18.478Z,6.50
2022-09-15T04:13:46.013Z,6.88
2022-09-15T04:16:17.708Z,6.45
2022-09-15T04:18:45.097Z,6.10
2022-09-15T04:21:14.113Z,5.20
2022-09-15T04:23:42.319Z,5.05
2022-09-15T04:26:29.819Z,5.22
2022-09-15T04:29:01.571Z,5.50
2022-09-15T04:31:31.719Z,5.60
2022-09-15T04:33:59.243Z,5.85
2022-09-15T04:36:27.318Z,5.75
2022-09-15T04:38:54.559Z,6.30
2022-09-15T04:41:22.412Z,5.57
2022-09-15T04:43:49.685Z,6.43
2022-09-15T04:46:17.352Z,5.57
2022-09-15T04:48:45.062Z,5.28
2022-09-15T04:51:13.604Z,4.90
2022-09-15T04:53:41.375Z,5.32
2022-09-15T04:56:10.285Z,4.80
2022-09-15T04:58:41.876Z,5.57
2022-09-15T05:01:13.666Z,5.85
2022-09-15T05:03:41.209Z,6.32
2022-09-15T05:06:09.617Z,6.70
2022-09-15T05:08:37.521Z,7.85
2022-09-15T05:11:09.184Z,8.70
2022-09-15T05:13:37.138Z,9.57
2022-09-15T05:16:23.349Z,9.40
2022-09-15T05:18:51.459Z,9.32
2022-09-15T05:21:22.401Z,9.13
2022-09-15T05:23:50.085Z,8.65
2022-09-15T05:26:18.585Z,9.65
2022-09-15T05:28:46.372Z,8.48
2022-09-15T05:31:21.294Z,7.97
2022-09-15T05:33:49.628Z,7.72
2022-09-15T05:36:17.436Z,7.53
2022-09-15T05:38:45.089Z,7.13
2022-09-15T05:41:19.996Z,6.65
2022-09-15T05:43:48.243Z,6.97
2022-09-15T05:46:17.648Z,6.40
2022-09-15T05:48:45.502Z,6.40
2022-09-15T05:51:12.998Z,6.82
2022-09-15T05:53:40.476Z,7.38
2022-09-15T05:56:10.015Z,7.18
2022-09-15T05:58:39.184Z,8.18
2022-09-15T06:01:07.915Z,7.97
2022-09-15T06:03:35.370Z,7.10
2022-09-15T06:06:03.692Z,6.80
2022-09-15T06:08:35.957Z,6.82
2022-09-15T06:13:30.288Z,6.85
2022-09-15T06:16:01.678Z,7.00
2022-09-15T06:18:29.046Z,6.17
2022-09-15T06:20:56.294Z,6.13
2022-09-15T06:23:23.782Z,6.47
2022-09-15T06:25:56.726Z,6.10
2022-09-15T06:28:29.853Z,5.65
2022-09-15T06:30:57.100Z,5.47
2022-09-15T06:33:24.383Z,5.40
2022-09-15T06:35:51.847Z,4.45
2022-09-15T06:38:19.113Z,4.70
2022-09-15T06:40:54.127Z,4.63
2022-09-15T06:43:21.708Z,4.57
2022-09-15T06:45:49.169Z,4.15
2022-09-15T06:48:24.333Z,3.80
2022-09-15T06:50:53.946Z,3.30
2022-09-15T06:53:21.747Z,3.33
2022-09-15T06:55:49.346Z,3.15
2022-09-15T06:58:16.800Z,3.80
2022-09-15T07:00:44.250Z,4.03
2022-09-15T07:03:11.705Z,3.45
2022-09-15T07:05:39.240Z,3.70
2022-09-15T07:08:06.513Z,3.67
2022-09-15T07:10:33.946Z,3.47
2022-09-15T07:13:01.397Z,3.40
2022-09-15T07:15:28.885Z,3.00
2022-09-15T07:17:56.222Z,3.47
2022-09-15T07:20:24.246Z,3.42
2022-09-15T07:22:57.367Z,3.45
2022-09-15T07:25:24.876Z,2.80
2022-09-15T07:27:52.120Z,2.83
2022-09-15T07:30:22.276Z,2.67
2022-09-15T07:32:49.786Z,2.25
2022-09-15T07:35:17.305Z,2.78
2022-09-15T07:37:44.564Z,2.80
2022-09-15T07:40:12.123Z,2.17
2022-09-15T07:42:41.870Z,2.45
2022-09-15T07:45:09.544Z,2.97
2022-09-15T07:47:37.920Z,2.63
2022-09-15T07:50:06.652Z,2.40
2022-09-15T07:52:33.917Z,2.30
2022-09-15T07:55:01.506Z,2.60
2022-09-15T07:57:28.741Z,2.45
2022-09-15T07:59:56.019Z,2.30
2022-09-15T08:02:23.500Z,2.53
2022-09-15T08:04:50.791Z,2.55
2022-09-15T08:07:18.072Z,2.83
2022-09-15T08:09:45.554Z,2.55
2022-09-15T08:12:12.774Z,2.25
2022-09-15T08:14:40.030Z,2.40
2022-09-15T08:17:11.412Z,3.03
2022-09-15T08:19:39.139Z,3.35
2022-09-15T08:22:06.396Z,2.40
2022-09-15T08:24:34.581Z,2.60
2022-09-15T08:27:01.834Z,2.70
2022-09-15T08:29:29.122Z,2.63
2022-09-15T08:31:56.606Z,2.70
2022-09-15T08:34:23.891Z,2.63
2022-09-15T08:36:51.146Z,2.80
2022-09-15T08:39:19.006Z,2.88
2022-09-15T08:41:50.779Z,2.22
2022-09-15T08:47:04.328Z,2.70
2022-09-15T08:49:51.615Z,2.30
2022-09-15T08:52:22.993Z,2.70
2022-09-15T08:54:52.219Z,2.30
2022-09-15T08:57:22.515Z,2.50
2022-09-15T08:59:50.380Z,2.13
2022-09-15T09:02:23.436Z,2.72
2022-09-15T09:05:17.793Z,2.17
2022-09-15T09:07:54.686Z,2.50
2022-09-15T09:10:22.551Z,2.50
2022-09-15T09:13:19.089Z,1.92
2022-09-15T09:15:53.918Z,2.40
2022-09-15T09:18:21.791Z,2.03
2022-09-15T09:20:58.379Z,2.17
2022-09-15T09:23:28.106Z,2.30
2022-09-15T09:25:56.489Z,1.95
2022-09-15T09:28:39.967Z,1.80
2022-09-15T09:31:11.227Z,2.30
2022-09-15T09:33:47.280Z,2.33
2022-09-15T09:36:15.756Z,2.00
2022-09-15T09:38:44.844Z,2.10
2022-09-15T09:41:17.013Z,2.55
2022-09-15T09:43:45.865Z,2.50
2022-09-15T09:46:13.859Z,2.58
2022-09-15T09:48:49.053Z,2.15
2022-09-15T09:51:29.073Z,3.15
2022-09-15T09:54:10.485Z,2.20
2022-09-15T09:56:38.803Z,2.28
2022-09-15T09:59:26.117Z,2.63
2022-09-15T10:02:13.824Z,2.40
2022-09-15T10:04:45.656Z,2.88
2022-09-15T10:07:14.232Z,2.97
2022-09-15T10:09:48.231Z,2.35
2022-09-15T10:12:19.990Z,4.00
2022-09-15T10:14:52.029Z,2.53
2022-09-15T10:17:24.574Z,2.50
2022-09-15T10:19:53.007Z,2.20
2022-09-15T10:22:25.989Z,2.20
2022-09-15T10:24:53.473Z,2.30
2022-09-15T10:27:26.012Z,2.50
2022-09-15T10:29:54.063Z,2.50
2022-09-15T10:32:26.066Z,1.95
2022-09-15T10:35:05.519Z,2.22
2022-09-15T10:37:51.798Z,2.40
2022-09-15T10:40:31.665Z,1.98
2022-09-15T10:43:05.491Z,2.20
2022-09-15T10:45:36.400Z,2.00
2022-09-15T10:48:15.957Z,1.57
2022-09-15T10:50:47.662Z,2.47
2022-09-15T10:53:33.274Z,1.98
2022-09-15T10:56:10.791Z,2.08
2022-09-15T10:58:46.845Z,1.90
2022-09-15T11:01:28.267Z,1.85
2022-09-15T11:04:18.709Z,2.33
2022-09-15T11:06:54.749Z,1.80
2022-09-15T11:09:38.565Z,1.70
2022-09-15T11:12:11.072Z,1.48
2022-09-15T11:14:38.477Z,1.80
2022-09-15T11:17:17.020Z,1.58
2022-09-15T11:19:44.452Z,1.70
2022-09-15T11:22:32.780Z,1.60
2022-09-15T11:25:10.648Z,1.83
2022-09-15T11:27:44.885Z,1.48
2022-09-15T11:30:24.164Z,1.58
2022-09-15T11:32:58.155Z,1.55
2022-09-15T11:35:25.905Z,1.90
2022-09-15T11:37:54.162Z,1.75
2022-09-15T11:40:25.959Z,1.90
2022-09-15T11:43:00.494Z,1.50
2022-09-15T11:45:30.710Z,1.92
2022-09-15T11:48:00.918Z,2.15
2022-09-15T11:50:30.545Z,1.90
2022-09-15T11:53:15.357Z,2.13
2022-09-15T11:55:45.337Z,1.60
2022-09-15T11:58:30.433Z,1.63
2022-09-15T12:00:57.889Z,1.67
2022-09-15T12:03:37.521Z,1.70
2022-09-15T12:06:13.152Z,1.98
2022-09-15T12:09:00.361Z,1.40
2022-09-15T12:11:31.875Z,1.63
2022-09-15T12:14:00.989Z,1.90
2022-09-15T12:16:30.786Z,1.66
2022-09-15T12:19:13.719Z,1.75
2022-09-15T12:21:56.458Z,1.77
2022-09-15T12:24:23.872Z,1.60
2022-09-15T12:26:53.033Z,1.55
2022-09-15T12:29:42.184Z,2.22
2022-09-15T12:32:31.945Z,2.10
2022-09-15T12:35:41.430Z,2.15
2022-09-15T12:38:13.583Z,1.75
2022-09-15T12:40:41.883Z,2.13
2022-09-15T12:43:14.659Z,2.42
2022-09-15T12:45:56.012Z,1.90
2022-09-15T12:48:28.475Z,2.25
2022-09-15T12:51:05.723Z,2.28
2022-09-15T12:53:40.845Z,2.50
2022-09-15T12:56:23.104Z,2.55
2022-09-15T13:01:19.508Z,2.92
2022-09-15T13:03:49.749Z,2.78
2022-09-15T13:06:20.310Z,2.58
2022-09-15T13:08:53.985Z,3.15
2022-09-15T13:11:33.536Z,3.28
2022-09-15T13:14:06.105Z,2.95
2022-09-15T13:16:40.816Z,3.00
2022-09-15T13:19:27.220Z,2.60
2022-09-15T13:22:06.428Z,2.88
2022-09-15T13:24:41.700Z,2.90
2022-09-15T13:27:09.676Z,3.15
2022-09-15T13:29:45.895Z,2.65
2022-09-15T13:32:25.400Z,2.55
2022-09-15T13:38:31.573Z,2.33
2022-09-15T13:41:18.168Z,2.30
2022-09-15T13:43:45.728Z,2.50
2022-09-15T13:46:25.224Z,2.53
2022-09-15T13:48:52.553Z,3.20
2022-09-15T13:51:27.669Z,2.60
2022-09-15T13:54:08.691Z,2.45
2022-09-15T13:56:39.599Z,2.70
2022-09-15T13:59:18.241Z,2.70
2022-09-15T14:01:46.524Z,2.25
2022-09-15T14:04:15.989Z,2.92
2022-09-15T14:06:45.888Z,2.53
2022-09-15T14:09:39.465Z,2.75
2022-09-15T14:12:11.488Z,2.53
2022-09-15T14:14:41.754Z,3.03
2022-09-15T14:17:23.123Z,2.33
2022-09-15T14:19:52.506Z,2.47
2022-09-15T14:22:33.177Z,2.35
2022-09-15T14:25:06.206Z,3.10
2022-09-15T14:27:35.104Z,2.72
2022-09-15T14:30:08.004Z,3.08
2022-09-15T14:32:37.780Z,2.63
2022-09-15T14:35:07.588Z,2.60
2022-09-15T14:37:34.990Z,2.17
2022-09-15T14:40:16.376Z,2.83
2022-09-15T14:42:44.046Z,2.22
2022-09-15T14:47:59.949Z,2.58
2022-09-15T14:50:32.318Z,2.75
2022-09-15T14:53:05.389Z,2.40
2022-09-15T14:55:51.423Z,1.95
2022-09-15T14:58:23.671Z,2.22
2022-09-15T15:00:59.471Z,2.13
2022-09-15T15:03:45.654Z,2.20
2022-09-15T15:06:29.459Z,1.70
2022-09-15T15:09:00.507Z,1.90
2022-09-15T15:11:28.345Z,2.20
2022-09-15T15:13:55.990Z,2.10
2022-09-15T15:16:29.379Z,2.00
2022-09-15T15:18:58.926Z,1.60
2022-09-15T15:21:38.083Z,2.17
2022-09-15T15:24:17.084Z,1.90
2022-09-15T15:26:49.235Z,1.75
2022-09-15T15:29:36.663Z,1.80
2022-09-15T15:32:12.763Z,2.08
2022-09-15T15:34:47.570Z,2.05
2022-09-15T15:37:25.560Z,1.73
2022-09-15T15:39:54.734Z,1.83
2022-09-15T15:42:23.862Z,1.50
2022-09-15T15:45:09.423Z,1.45
2022-09-15T15:47:37.095Z,1.80
2022-09-15T15:50:14.846Z,1.95
2022-09-15T15:52:42.968Z,1.67
2022-09-15T15:55:13.280Z,1.90
2022-09-15T15:57:40.715Z,2.50
2022-09-15T16:00:21.064Z,2.13
2022-09-15T16:02:49.432Z,1.63
2022-09-15T16:05:17.051Z,2.22
2022-09-15T16:07:45.551Z,1.80
2022-09-15T16:10:17.170Z,1.80
2022-09-15T16:12:44.750Z,1.70
2022-09-15T16:15:13.722Z,1.88
2022-09-15T16:17:45.920Z,1.98
2022-09-15T16:20:15.900Z,1.80
2022-09-15T16:22:43.500Z,1.80
2022-09-15T16:25:13.637Z,1.77
2022-09-15T16:27:41.338Z,1.88
2022-09-15T16:30:09.072Z,2.08
2022-09-15T16:32:36.292Z,2.03
2022-09-15T16:35:42.226Z,2.08
2022-09-15T16:38:09.844Z,1.60
2022-09-15T16:40:37.629Z,1.92
2022-09-15T16:43:09.194Z,1.63
2022-09-15T16:45:40.544Z,2.08
2022-09-15T16:48:09.370Z,1.75
2022-09-15T16:50:39.823Z,1.77
2022-09-15T16:53:17.451Z,2.00
2022-09-15T16:55:48.645Z,1.70
2022-09-15T16:58:17.009Z,2.13
2022-09-15T17:00:44.967Z,2.03
2022-09-15T17:03:17.474Z,1.85
2022-09-15T17:05:48.547Z,1.88
2022-09-15T17:08:17.094Z,1.80
2022-09-15T17:10:44.489Z,1.90
2022-09-15T17:13:14.550Z,2.80
2022-09-15T17:16:00.688Z,2.03
2022-09-15T17:18:28.661Z,2.03
2022-09-15T17:20:56.297Z,2.35
2022-09-15T17:23:23.543Z,2.17
2022-09-15T17:25:52.009Z,2.08
2022-09-15T17:28:23.149Z,2.00
2022-09-15T17:30:51.161Z,2.40
2022-09-15T17:33:19.901Z,2.50
2022-09-15T17:35:49.732Z,2.20
2022-09-15T17:38:17.092Z,2.65
2022-09-15T17:40:44.542Z,2.40
2022-09-15T17:43:14.042Z,1.90
2022-09-15T17:45:41.425Z,2.70
2022-09-15T17:48:18.064Z,2.20
2022-09-15T17:50:45.843Z,2.85
2022-09-15T17:53:14.590Z,2.08
2022-09-15T17:55:42.197Z,2.20
2022-09-15T17:58:10.070Z,2.05
2022-09-15T18:00:43.154Z,1.90
2022-09-15T18:03:15.734Z,2.05
2022-09-15T18:05:43.276Z,1.90
2022-09-15T18:08:10.644Z,1.90
2022-09-15T18:10:38.160Z,1.80
2022-09-15T18:13:10.952Z,2.20
2022-09-15T18:15:44.117Z,1.90
2022-09-15T18:18:14.673Z,2.00
2022-09-15T18:20:43.653Z,1.70
2022-09-15T18:23:14.853Z,1.80
2022-09-15T18:25:42.781Z,1.80
2022-09-15T18:28:10.274Z,1.70
2022-09-15T18:30:38.464Z,1.88
2022-09-15T18:33:07.070Z,1.80
2022-09-15T18:35:34.374Z,2.00
2022-09-15T18:38:01.734Z,1.30
2022-09-15T18:40:32.101Z,1.50
2022-09-15T18:42:59.751Z,1.80
2022-09-15T18:45:27.080Z,1.50
2022-09-15T18:47:54.825Z,1.48
2022-09-15T18:50:23.118Z,1.33
2022-09-15T18:52:50.429Z,1.50
2022-09-15T18:55:19.979Z,1.90
2022-09-15T18:57:47.270Z,1.50
2022-09-15T19:00:16.956Z,1.70
2022-09-15T19:02:44.615Z,1.90
2022-09-15T19:05:12.542Z,1.70
2022-09-15T19:07:39.872Z,1.63
2022-09-15T19:10:07.926Z,1.80
2022-09-15T19:12:35.789Z,1.90
2022-09-15T19:15:04.077Z,1.63
2022-09-15T19:17:31.768Z,1.70
2022-09-15T19:20:00.035Z,1.83
2022-09-15T19:22:28.079Z,1.80
2022-09-15T19:25:05.233Z,1.80
2022-09-15T19:28:07.329Z,2.00
2022-09-15T19:30:45.366Z,2.05
2022-09-15T19:34:04.653Z,1.65
2022-09-15T19:37:13.156Z,2.10
2022-09-15T19:39:49.104Z,1.95
2022-09-15T19:42:17.095Z,2.08
2022-09-15T19:44:52.190Z,2.28
2022-09-15T19:47:29.633Z,2.08
2022-09-15T19:49:57.235Z,2.10
2022-09-15T19:52:28.205Z,1.90
2022-09-15T19:54:55.566Z,1.80
2022-09-15T19:57:23.006Z,2.10
2022-09-15T19:59:50.599Z,2.35
2022-09-15T20:02:17.978Z,2.30
2022-09-15T20:04:45.332Z,2.80
2022-09-15T20:07:12.954Z,2.15
2022-09-15T20:09:40.458Z,2.40
2022-09-15T20:12:07.786Z,2.63
2022-09-15T20:14:35.289Z,2.22
2022-09-15T20:17:02.794Z,2.28
2022-09-15T20:19:30.300Z,2.60
2022-09-15T20:21:58.104Z,2.72
2022-09-15T20:24:25.521Z,2.20
2022-09-15T20:26:52.800Z,2.40
2022-09-15T20:29:20.965Z,2.55
2022-09-15T20:31:48.305Z,2.60
2022-09-15T20:34:15.708Z,2.10
2022-09-15T20:36:43.348Z,2.50
2022-09-15T20:39:14.582Z,2.40
2022-09-15T20:41:42.903Z,2.30
2022-09-15T20:44:10.373Z,2.40
2022-09-15T20:46:37.665Z,2.22
2022-09-15T20:49:05.360Z,2.92
2022-09-15T20:51:33.015Z,2.10
2022-09-15T20:54:01.192Z,2.72
2022-09-15T20:56:29.459Z,2.30
2022-09-15T20:58:58.132Z,2.60
2022-09-15T21:01:27.164Z,2.90
2022-09-15T21:03:54.530Z,2.47
2022-09-15T21:06:23.473Z,2.28
2022-09-15T21:08:50.916Z,2.35
2022-09-15T21:11:18.834Z,2.38
2022-09-15T21:13:46.711Z,2.30
2022-09-15T21:16:15.518Z,2.13
2022-09-15T21:18:43.426Z,2.40
2022-09-15T21:21:18.150Z,2.22
2022-09-15T21:23:46.543Z,1.83
2022-09-15T21:26:18.314Z,2.00
2022-09-15T21:28:57.676Z,2.10
2022-09-15T21:31:26.701Z,1.90
2022-09-15T21:34:00.101Z,1.90
2022-09-15T21:36:28.703Z,2.00
2022-09-15T21:38:59.473Z,1.88
2022-09-15T21:41:27.762Z,2.10
2022-09-15T21:43:55.740Z,1.95
2022-09-15T21:46:23.972Z,2.03
2022-09-15T21:48:51.425Z,1.92
2022-09-15T21:51:24.317Z,2.05
2022-09-15T21:53:54.845Z,2.00
2022-09-15T21:56:22.687Z,1.88
2022-09-15T21:58:52.009Z,2.20
2022-09-15T22:01:20.616Z,2.00
2022-09-15T22:03:49.473Z,1.77
2022-09-15T22:06:17.235Z,1.58
2022-09-15T22:08:44.565Z,2.05
2022-09-15T22:11:12.073Z,2.30
2022-09-15T22:13:40.668Z,2.40
2022-09-15T22:16:10.654Z,2.10
2022-09-15T22:18:39.230Z,2.00
2022-09-15T22:21:11.686Z,1.88
2022-09-15T22:23:39.656Z,1.92
2022-09-15T22:26:08.257Z,1.90
2022-09-15T22:28:35.561Z,1.83
2022-09-15T22:31:05.113Z,2.20
2022-09-15T22:33:32.417Z,1.90
2022-09-15T22:35:59.731Z,1.70
2022-09-15T22:38:28.200Z,1.70
2022-09-15T22:40:55.789Z,1.75
2022-09-15T22:43:23.125Z,2.20
2022-09-15T22:45:50.694Z,1.52
2022-09-15T22:48:18.086Z,1.70
2022-09-15T22:50:45.534Z,2.20
2022-09-15T22:53:14.520Z,2.13
2022-09-15T22:55:41.987Z,2.00
2022-09-15T22:58:09.305Z,1.90
2022-09-15T23:00:39.731Z,1.48
2022-09-15T23:03:07.023Z,1.88
2022-09-15T23:05:34.659Z,1.77
2022-09-15T23:08:03.077Z,1.30
2022-09-15T23:10:32.451Z,1.40
2022-09-15T23:12:59.702Z,2.03
2022-09-15T23:15:27.165Z,1.60
2022-09-15T23:17:54.455Z,1.50
2022-09-15T23:20:21.778Z,1.80
2022-09-15T23:22:49.258Z,1.60
2022-09-15T23:25:16.560Z,1.55
2022-09-15T23:27:43.884Z,1.75
2022-09-15T23:30:11.576Z,1.70
2022-09-15T23:32:38.811Z,1.48
2022-09-15T23:35:06.303Z,1.50
2022-09-15T23:37:33.760Z,1.40
2022-09-15T23:40:13.937Z,1.23
2022-09-15T23:42:41.480Z,1.70
2022-09-15T23:45:08.916Z,1.60
2022-09-15T23:47:36.174Z,1.80
2022-09-15T23:50:03.746Z,1.83
2022-09-15T23:52:31.037Z,1.63
2022-09-15T23:54:58.341Z,1.42
2022-09-15T23:57:25.805Z,1.60
2022-09-15T23:59:54.110Z,1.33
